sensor_id;sensor_type;location;lat;lon;timestamp;P1;durP1;ratioP1;P2;durP2;ratioP2
30948;SDS011;17637;51.984;21.208;2023-02-04T00:01:04;21.85;;;15.73;;
30948;SDS011;17637;51.984;21.208;2023-02-04T00:03:36;27.00;;;16.30;;
30948;SDS011;17637;51.984;21.208;2023-02-04T00:06:08;23.05;;;15.82;;
30948;SDS011;17637;51.984;21.208;2023-02-04T00:08:40;20.55;;;14.93;;
30948;SDS011;17637;51.984;21.208;2023-02-04T00:11:12;34.22;;;17.67;;
30948;SDS011;17637;51.984;21.208;2023-02-04T00:13:44;28.35;;;17.33;;
30948;SDS011;17637;51.984;21.208;2023-02-04T00:16:17;28.70;;;16.80;;
30948;SDS011;17637;51.984;21.208;2023-02-04T00:18:49;27.52;;;16.00;;
30948;SDS011;17637;51.984;21.208;2023-02-04T00:21:21;22.60;;;14.73;;
30948;SDS011;17637;51.984;21.208;2023-02-04T00:23:53;25.20;;;15.75;;
30948;SDS011;17637;51.984;21.208;2023-02-04T00:26:26;19.40;;;14.10;;
30948;SDS011;17637;51.984;21.208;2023-02-04T00:28:58;20.65;;;14.25;;
30948;SDS011;17637;51.984;21.208;2023-02-04T00:31:30;17.98;;;12.57;;
30948;SDS011;17637;51.984;21.208;2023-02-04T00:34:02;17.98;;;12.68;;
30948;SDS011;17637;51.984;21.208;2023-02-04T00:36:34;18.92;;;13.63;;
30948;SDS011;17637;51.984;21.208;2023-02-04T00:39:06;22.55;;;13.95;;
30948;SDS011;17637;51.984;21.208;2023-02-04T00:41:38;19.83;;;13.73;;
30948;SDS011;17637;51.984;21.208;2023-02-04T00:44:10;19.55;;;14.60;;
30948;SDS011;17637;51.984;21.208;2023-02-04T00:46:44;19.45;;;13.88;;
30948;SDS011;17637;51.984;21.208;2023-02-04T00:49:16;19.60;;;12.55;;
30948;SDS011;17637;51.984;21.208;2023-02-04T00:51:48;15.82;;;12.63;;
30948;SDS011;17637;51.984;21.208;2023-02-04T00:54:20;17.02;;;12.70;;
30948;SDS011;17637;51.984;21.208;2023-02-04T00:56:52;18.30;;;14.02;;
30948;SDS011;17637;51.984;21.208;2023-02-04T00:59:24;23.05;;;14.68;;
30948;SDS011;17637;51.984;21.208;2023-02-04T01:01:56;23.42;;;15.63;;
30948;SDS011;17637;51.984;21.208;2023-02-04T01:04:28;20.98;;;14.18;;
30948;SDS011;17637;51.984;21.208;2023-02-04T01:07:00;18.33;;;13.45;;
30948;SDS011;17637;51.984;21.208;2023-02-04T01:09:32;16.42;;;12.52;;
30948;SDS011;17637;51.984;21.208;2023-02-04T01:12:04;20.52;;;13.38;;
30948;SDS011;17637;51.984;21.208;2023-02-04T01:14:36;21.35;;;13.93;;
30948;SDS011;17637;51.984;21.208;2023-02-04T01:17:08;20.00;;;13.25;;
30948;SDS011;17637;51.984;21.208;2023-02-04T01:19:40;17.95;;;13.10;;
30948;SDS011;17637;51.984;21.208;2023-02-04T01:22:12;17.23;;;12.90;;
30948;SDS011;17637;51.984;21.208;2023-02-04T01:24:44;17.42;;;12.50;;
30948;SDS011;17637;51.984;21.208;2023-02-04T01:27:16;20.95;;;14.60;;
30948;SDS011;17637;51.984;21.208;2023-02-04T01:29:48;17.33;;;12.05;;
30948;SDS011;17637;51.984;21.208;2023-02-04T01:32:20;19.65;;;13.40;;
30948;SDS011;17637;51.984;21.208;2023-02-04T01:34:52;18.92;;;13.82;;
30948;SDS011;17637;51.984;21.208;2023-02-04T01:37:27;18.98;;;13.05;;
30948;SDS011;17637;51.984;21.208;2023-02-04T01:39:59;17.95;;;13.25;;
30948;SDS011;17637;51.984;21.208;2023-02-04T01:42:31;16.63;;;11.77;;
30948;SDS011;17637;51.984;21.208;2023-02-04T01:45:03;16.00;;;11.45;;
30948;SDS011;17637;51.984;21.208;2023-02-04T01:47:39;15.65;;;11.57;;
30948;SDS011;17637;51.984;21.208;2023-02-04T01:50:12;15.73;;;10.35;;
30948;SDS011;17637;51.984;21.208;2023-02-04T01:52:45;14.68;;;11.65;;
30948;SDS011;17637;51.984;21.208;2023-02-04T01:55:18;13.43;;;10.98;;
30948;SDS011;17637;51.984;21.208;2023-02-04T01:57:54;15.55;;;11.88;;
30948;SDS011;17637;51.984;21.208;2023-02-04T02:00:30;18.00;;;12.60;;
30948;SDS011;17637;51.984;21.208;2023-02-04T02:03:04;16.13;;;11.57;;
30948;SDS011;17637;51.984;21.208;2023-02-04T02:05:41;14.52;;;10.75;;
30948;SDS011;17637;51.984;21.208;2023-02-04T02:08:18;14.90;;;10.45;;
30948;SDS011;17637;51.984;21.208;2023-02-04T02:10:50;14.55;;;10.77;;
30948;SDS011;17637;51.984;21.208;2023-02-04T02:13:23;14.68;;;10.07;;
30948;SDS011;17637;51.984;21.208;2023-02-04T02:15:55;15.82;;;11.05;;
30948;SDS011;17637;51.984;21.208;2023-02-04T02:18:27;12.68;;;9.23;;
30948;SDS011;17637;51.984;21.208;2023-02-04T02:20:59;19.52;;;10.00;;
30948;SDS011;17637;51.984;21.208;2023-02-04T02:23:46;14.38;;;10.68;;
30948;SDS011;17637;51.984;21.208;2023-02-04T02:26:20;13.45;;;10.10;;
30948;SDS011;17637;51.984;21.208;2023-02-04T02:28:53;13.60;;;9.38;;
30948;SDS011;17637;51.984;21.208;2023-02-04T02:31:26;12.45;;;10.05;;
30948;SDS011;17637;51.984;21.208;2023-02-04T02:33:58;13.30;;;10.55;;
30948;SDS011;17637;51.984;21.208;2023-02-04T02:36:30;13.27;;;9.35;;
30948;SDS011;17637;51.984;21.208;2023-02-04T02:39:02;12.18;;;9.43;;
30948;SDS011;17637;51.984;21.208;2023-02-04T02:41:34;13.32;;;8.73;;
30948;SDS011;17637;51.984;21.208;2023-02-04T02:44:06;12.15;;;9.20;;
30948;SDS011;17637;51.984;21.208;2023-02-04T02:46:39;11.63;;;8.82;;
30948;SDS011;17637;51.984;21.208;2023-02-04T02:49:13;11.85;;;8.80;;
30948;SDS011;17637;51.984;21.208;2023-02-04T02:51:51;11.77;;;9.57;;
30948;SDS011;17637;51.984;21.208;2023-02-04T02:54:24;11.63;;;8.88;;
30948;SDS011;17637;51.984;21.208;2023-02-04T02:56:59;11.93;;;8.40;;
30948;SDS011;17637;51.984;21.208;2023-02-04T02:59:31;11.43;;;8.45;;
30948;SDS011;17637;51.984;21.208;2023-02-04T03:02:03;12.38;;;8.80;;
30948;SDS011;17637;51.984;21.208;2023-02-04T03:04:38;13.02;;;8.68;;
30948;SDS011;17637;51.984;21.208;2023-02-04T03:07:13;11.65;;;8.40;;
30948;SDS011;17637;51.984;21.208;2023-02-04T03:09:46;11.23;;;8.23;;
30948;SDS011;17637;51.984;21.208;2023-02-04T03:12:19;13.30;;;7.95;;
30948;SDS011;17637;51.984;21.208;2023-02-04T03:14:51;11.52;;;8.60;;
30948;SDS011;17637;51.984;21.208;2023-02-04T03:17:23;10.55;;;8.65;;
30948;SDS011;17637;51.984;21.208;2023-02-04T03:19:55;9.80;;;7.28;;
30948;SDS011;17637;51.984;21.208;2023-02-04T03:22:27;13.27;;;8.40;;
30948;SDS011;17637;51.984;21.208;2023-02-04T03:24:59;10.55;;;7.32;;
30948;SDS011;17637;51.984;21.208;2023-02-04T03:27:31;11.25;;;8.63;;
30948;SDS011;17637;51.984;21.208;2023-02-04T03:30:04;8.88;;;7.68;;
30948;SDS011;17637;51.984;21.208;2023-02-04T03:32:36;11.02;;;7.80;;
30948;SDS011;17637;51.984;21.208;2023-02-04T03:35:08;13.05;;;7.75;;
30948;SDS011;17637;51.984;21.208;2023-02-04T03:37:40;12.23;;;8.40;;
30948;SDS011;17637;51.984;21.208;2023-02-04T03:40:12;10.90;;;8.65;;
30948;SDS011;17637;51.984;21.208;2023-02-04T03:42:45;11.57;;;8.93;;
30948;SDS011;17637;51.984;21.208;2023-02-04T03:45:16;11.85;;;8.55;;
30948;SDS011;17637;51.984;21.208;2023-02-04T03:47:48;11.30;;;7.75;;
30948;SDS011;17637;51.984;21.208;2023-02-04T03:50:20;13.13;;;8.65;;
30948;SDS011;17637;51.984;21.208;2023-02-04T03:52:52;12.18;;;8.82;;
30948;SDS011;17637;51.984;21.208;2023-02-04T03:55:24;9.05;;;6.70;;
30948;SDS011;17637;51.984;21.208;2023-02-04T03:57:57;10.88;;;8.70;;
30948;SDS011;17637;51.984;21.208;2023-02-04T04:00:29;11.98;;;9.38;;
30948;SDS011;17637;51.984;21.208;2023-02-04T04:03:03;14.75;;;9.15;;
30948;SDS011;17637;51.984;21.208;2023-02-04T04:05:35;12.10;;;8.77;;
30948;SDS011;17637;51.984;21.208;2023-02-04T04:08:07;15.52;;;8.68;;
30948;SDS011;17637;51.984;21.208;2023-02-04T04:10:39;12.27;;;8.82;;
30948;SDS011;17637;51.984;21.208;2023-02-04T04:13:12;11.55;;;8.32;;
30948;SDS011;17637;51.984;21.208;2023-02-04T04:15:44;12.00;;;8.90;;
30948;SDS011;17637;51.984;21.208;2023-02-04T04:18:16;12.88;;;7.95;;
30948;SDS011;17637;51.984;21.208;2023-02-04T04:20:48;9.68;;;7.40;;
30948;SDS011;17637;51.984;21.208;2023-02-04T04:23:20;11.52;;;7.80;;
30948;SDS011;17637;51.984;21.208;2023-02-04T04:25:52;10.23;;;7.25;;
30948;SDS011;17637;51.984;21.208;2023-02-04T04:28:24;11.00;;;7.40;;
30948;SDS011;17637;51.984;21.208;2023-02-04T04:30:56;8.75;;;6.82;;
30948;SDS011;17637;51.984;21.208;2023-02-04T04:33:28;10.93;;;7.43;;
30948;SDS011;17637;51.984;21.208;2023-02-04T04:36:00;9.73;;;7.43;;
30948;SDS011;17637;51.984;21.208;2023-02-04T04:38:32;8.32;;;6.70;;
30948;SDS011;17637;51.984;21.208;2023-02-04T04:41:04;10.25;;;7.80;;
30948;SDS011;17637;51.984;21.208;2023-02-04T04:43:36;10.32;;;7.13;;
30948;SDS011;17637;51.984;21.208;2023-02-04T04:46:08;10.45;;;7.45;;
30948;SDS011;17637;51.984;21.208;2023-02-04T04:48:40;8.77;;;7.15;;
30948;SDS011;17637;51.984;21.208;2023-02-04T04:51:12;9.73;;;7.05;;
30948;SDS011;17637;51.984;21.208;2023-02-04T04:53:44;12.52;;;7.80;;
30948;SDS011;17637;51.984;21.208;2023-02-04T04:56:16;10.82;;;7.65;;
30948;SDS011;17637;51.984;21.208;2023-02-04T04:58:49;10.45;;;7.25;;
30948;SDS011;17637;51.984;21.208;2023-02-04T05:01:21;11.95;;;8.18;;
30948;SDS011;17637;51.984;21.208;2023-02-04T05:03:53;11.23;;;7.72;;
30948;SDS011;17637;51.984;21.208;2023-02-04T05:06:25;10.68;;;6.80;;
30948;SDS011;17637;51.984;21.208;2023-02-04T05:08:57;11.68;;;7.88;;
30948;SDS011;17637;51.984;21.208;2023-02-04T05:11:29;10.48;;;7.07;;
30948;SDS011;17637;51.984;21.208;2023-02-04T05:14:01;9.40;;;7.03;;
30948;SDS011;17637;51.984;21.208;2023-02-04T05:16:33;11.57;;;7.55;;
30948;SDS011;17637;51.984;21.208;2023-02-04T05:19:05;12.32;;;7.60;;
30948;SDS011;17637;51.984;21.208;2023-02-04T05:21:37;10.50;;;7.60;;
30948;SDS011;17637;51.984;21.208;2023-02-04T05:24:09;9.88;;;7.85;;
30948;SDS011;17637;51.984;21.208;2023-02-04T05:26:41;10.65;;;7.90;;
30948;SDS011;17637;51.984;21.208;2023-02-04T05:29:13;10.23;;;6.82;;
30948;SDS011;17637;51.984;21.208;2023-02-04T05:31:45;9.90;;;8.07;;
30948;SDS011;17637;51.984;21.208;2023-02-04T05:34:17;12.55;;;7.85;;
30948;SDS011;17637;51.984;21.208;2023-02-04T05:36:49;12.25;;;8.35;;
30948;SDS011;17637;51.984;21.208;2023-02-04T05:39:22;11.88;;;8.20;;
30948;SDS011;17637;51.984;21.208;2023-02-04T05:41:54;14.45;;;9.15;;
30948;SDS011;17637;51.984;21.208;2023-02-04T05:44:26;12.23;;;8.35;;
30948;SDS011;17637;51.984;21.208;2023-02-04T05:46:58;13.10;;;9.35;;
30948;SDS011;17637;51.984;21.208;2023-02-04T05:49:30;13.15;;;9.52;;
30948;SDS011;17637;51.984;21.208;2023-02-04T05:52:05;12.75;;;9.63;;
30948;SDS011;17637;51.984;21.208;2023-02-04T05:54:37;13.48;;;9.93;;
30948;SDS011;17637;51.984;21.208;2023-02-04T05:57:09;13.75;;;10.02;;
30948;SDS011;17637;51.984;21.208;2023-02-04T05:59:41;13.20;;;10.35;;
30948;SDS011;17637;51.984;21.208;2023-02-04T06:02:13;11.30;;;7.80;;
30948;SDS011;17637;51.984;21.208;2023-02-04T06:04:46;13.60;;;10.32;;
30948;SDS011;17637;51.984;21.208;2023-02-04T06:07:18;14.05;;;10.07;;
30948;SDS011;17637;51.984;21.208;2023-02-04T06:09:50;14.60;;;9.93;;
30948;SDS011;17637;51.984;21.208;2023-02-04T06:12:22;14.75;;;10.93;;
30948;SDS011;17637;51.984;21.208;2023-02-04T06:14:54;12.95;;;9.02;;
30948;SDS011;17637;51.984;21.208;2023-02-04T06:17:26;17.40;;;11.50;;
30948;SDS011;17637;51.984;21.208;2023-02-04T06:19:58;15.35;;;10.02;;
30948;SDS011;17637;51.984;21.208;2023-02-04T06:22:30;13.55;;;9.82;;
30948;SDS011;17637;51.984;21.208;2023-02-04T06:25:02;14.43;;;10.40;;
30948;SDS011;17637;51.984;21.208;2023-02-04T06:27:34;12.43;;;9.48;;
30948;SDS011;17637;51.984;21.208;2023-02-04T06:30:06;13.02;;;9.65;;
30948;SDS011;17637;51.984;21.208;2023-02-04T06:32:39;13.65;;;10.05;;
30948;SDS011;17637;51.984;21.208;2023-02-04T06:35:11;15.82;;;10.40;;
30948;SDS011;17637;51.984;21.208;2023-02-04T06:37:45;14.60;;;9.50;;
30948;SDS011;17637;51.984;21.208;2023-02-04T06:40:17;10.65;;;8.32;;
30948;SDS011;17637;51.984;21.208;2023-02-04T06:42:50;11.43;;;8.02;;
30948;SDS011;17637;51.984;21.208;2023-02-04T06:45:22;9.63;;;7.07;;
30948;SDS011;17637;51.984;21.208;2023-02-04T06:47:54;11.70;;;7.40;;
30948;SDS011;17637;51.984;21.208;2023-02-04T06:50:26;16.10;;;8.60;;
30948;SDS011;17637;51.984;21.208;2023-02-04T06:52:58;17.05;;;10.52;;
30948;SDS011;17637;51.984;21.208;2023-02-04T06:55:30;16.48;;;9.18;;
30948;SDS011;17637;51.984;21.208;2023-02-04T06:58:02;12.77;;;8.52;;
30948;SDS011;17637;51.984;21.208;2023-02-04T07:00:34;15.95;;;9.65;;
30948;SDS011;17637;51.984;21.208;2023-02-04T07:03:06;11.25;;;8.40;;
30948;SDS011;17637;51.984;21.208;2023-02-04T07:05:38;16.15;;;6.78;;
30948;SDS011;17637;51.984;21.208;2023-02-04T07:08:10;14.10;;;7.97;;
30948;SDS011;17637;51.984;21.208;2023-02-04T07:10:42;13.82;;;8.75;;
30948;SDS011;17637;51.984;21.208;2023-02-04T07:13:14;12.15;;;8.35;;
30948;SDS011;17637;51.984;21.208;2023-02-04T07:15:46;8.95;;;6.75;;
30948;SDS011;17637;51.984;21.208;2023-02-04T07:18:18;12.90;;;8.88;;
30948;SDS011;17637;51.984;21.208;2023-02-04T07:20:50;10.65;;;6.85;;
30948;SDS011;17637;51.984;21.208;2023-02-04T07:23:23;8.85;;;5.80;;
30948;SDS011;17637;51.984;21.208;2023-02-04T07:25:55;13.38;;;7.45;;
30948;SDS011;17637;51.984;21.208;2023-02-04T07:28:29;10.73;;;7.43;;
30948;SDS011;17637;51.984;21.208;2023-02-04T07:31:02;8.07;;;5.57;;
30948;SDS011;17637;51.984;21.208;2023-02-04T07:33:34;15.05;;;6.20;;
30948;SDS011;17637;51.984;21.208;2023-02-04T07:36:08;12.65;;;7.65;;
30948;SDS011;17637;51.984;21.208;2023-02-04T07:38:41;14.07;;;7.50;;
30948;SDS011;17637;51.984;21.208;2023-02-04T07:41:13;11.20;;;7.85;;
30948;SDS011;17637;51.984;21.208;2023-02-04T07:43:45;10.75;;;7.47;;
30948;SDS011;17637;51.984;21.208;2023-02-04T07:46:17;9.98;;;7.32;;
30948;SDS011;17637;51.984;21.208;2023-02-04T07:48:49;20.92;;;12.85;;
30948;SDS011;17637;51.984;21.208;2023-02-04T07:51:21;19.50;;;11.00;;
30948;SDS011;17637;51.984;21.208;2023-02-04T07:53:53;23.83;;;12.15;;
30948;SDS011;17637;51.984;21.208;2023-02-04T07:56:26;12.63;;;6.07;;
30948;SDS011;17637;51.984;21.208;2023-02-04T07:58:58;30.52;;;17.10;;
30948;SDS011;17637;51.984;21.208;2023-02-04T08:01:30;8.55;;;6.57;;
30948;SDS011;17637;51.984;21.208;2023-02-04T08:04:02;12.15;;;7.07;;
30948;SDS011;17637;51.984;21.208;2023-02-04T08:06:35;10.13;;;6.75;;
30948;SDS011;17637;51.984;21.208;2023-02-04T08:09:07;10.55;;;6.78;;
30948;SDS011;17637;51.984;21.208;2023-02-04T08:11:39;11.73;;;6.95;;
30948;SDS011;17637;51.984;21.208;2023-02-04T08:14:11;8.38;;;6.20;;
30948;SDS011;17637;51.984;21.208;2023-02-04T08:16:43;9.82;;;6.25;;
30948;SDS011;17637;51.984;21.208;2023-02-04T08:19:15;7.72;;;5.35;;
30948;SDS011;17637;51.984;21.208;2023-02-04T08:21:49;10.50;;;6.43;;
30948;SDS011;17637;51.984;21.208;2023-02-04T08:24:21;10.45;;;6.47;;
30948;SDS011;17637;51.984;21.208;2023-02-04T08:26:53;10.90;;;6.05;;
30948;SDS011;17637;51.984;21.208;2023-02-04T08:29:25;17.45;;;8.60;;
30948;SDS011;17637;51.984;21.208;2023-02-04T08:31:57;17.67;;;9.80;;
30948;SDS011;17637;51.984;21.208;2023-02-04T08:34:29;9.95;;;6.13;;
30948;SDS011;17637;51.984;21.208;2023-02-04T08:37:02;9.93;;;5.40;;
30948;SDS011;17637;51.984;21.208;2023-02-04T08:39:34;6.38;;;4.55;;
30948;SDS011;17637;51.984;21.208;2023-02-04T08:42:06;6.85;;;4.50;;
30948;SDS011;17637;51.984;21.208;2023-02-04T08:44:38;6.93;;;3.50;;
30948;SDS011;17637;51.984;21.208;2023-02-04T08:47:10;7.78;;;4.57;;
30948;SDS011;17637;51.984;21.208;2023-02-04T08:49:42;8.52;;;5.05;;
30948;SDS011;17637;51.984;21.208;2023-02-04T08:52:14;6.63;;;4.18;;
30948;SDS011;17637;51.984;21.208;2023-02-04T08:54:48;6.75;;;4.28;;
30948;SDS011;17637;51.984;21.208;2023-02-04T08:57:20;7.50;;;4.47;;
30948;SDS011;17637;51.984;21.208;2023-02-04T08:59:52;7.88;;;4.68;;
30948;SDS011;17637;51.984;21.208;2023-02-04T09:02:24;7.20;;;4.38;;
30948;SDS011;17637;51.984;21.208;2023-02-04T09:04:56;10.38;;;5.78;;
30948;SDS011;17637;51.984;21.208;2023-02-04T09:07:28;10.23;;;5.43;;
30948;SDS011;17637;51.984;21.208;2023-02-04T09:10:00;19.55;;;11.27;;
30948;SDS011;17637;51.984;21.208;2023-02-04T09:12:32;8.13;;;4.90;;
30948;SDS011;17637;51.984;21.208;2023-02-04T09:15:04;7.28;;;4.07;;
30948;SDS011;17637;51.984;21.208;2023-02-04T09:17:36;13.57;;;6.38;;
30948;SDS011;17637;51.984;21.208;2023-02-04T09:20:10;10.60;;;6.38;;
30948;SDS011;17637;51.984;21.208;2023-02-04T09:22:42;7.90;;;4.53;;
30948;SDS011;17637;51.984;21.208;2023-02-04T09:25:14;7.32;;;4.32;;
30948;SDS011;17637;51.984;21.208;2023-02-04T09:27:46;8.32;;;4.47;;
30948;SDS011;17637;51.984;21.208;2023-02-04T09:30:18;7.72;;;3.60;;
30948;SDS011;17637;51.984;21.208;2023-02-04T09:32:50;6.82;;;3.47;;
30948;SDS011;17637;51.984;21.208;2023-02-04T09:35:22;8.82;;;4.78;;
30948;SDS011;17637;51.984;21.208;2023-02-04T09:37:54;5.55;;;3.35;;
30948;SDS011;17637;51.984;21.208;2023-02-04T09:40:26;5.68;;;3.70;;
30948;SDS011;17637;51.984;21.208;2023-02-04T09:43:02;12.52;;;6.80;;
30948;SDS011;17637;51.984;21.208;2023-02-04T09:45:36;6.40;;;4.28;;
30948;SDS011;17637;51.984;21.208;2023-02-04T09:48:08;5.18;;;3.83;;
30948;SDS011;17637;51.984;21.208;2023-02-04T09:50:43;5.90;;;3.22;;
30948;SDS011;17637;51.984;21.208;2023-02-04T09:53:17;3.13;;;2.65;;
30948;SDS011;17637;51.984;21.208;2023-02-04T09:55:53;6.00;;;3.50;;
30948;SDS011;17637;51.984;21.208;2023-02-04T09:58:25;6.30;;;4.20;;
30948;SDS011;17637;51.984;21.208;2023-02-04T10:01:08;7.78;;;4.18;;
30948;SDS011;17637;51.984;21.208;2023-02-04T10:03:46;6.40;;;3.70;;
30948;SDS011;17637;51.984;21.208;2023-02-04T10:06:20;7.03;;;4.35;;
30948;SDS011;17637;51.984;21.208;2023-02-04T10:08:54;20.23;;;11.68;;
30948;SDS011;17637;51.984;21.208;2023-02-04T10:11:27;5.13;;;3.80;;
30948;SDS011;17637;51.984;21.208;2023-02-04T10:14:05;6.35;;;3.92;;
30948;SDS011;17637;51.984;21.208;2023-02-04T10:16:42;7.80;;;5.00;;
30948;SDS011;17637;51.984;21.208;2023-02-04T10:19:18;9.07;;;4.18;;
30948;SDS011;17637;51.984;21.208;2023-02-04T10:21:50;6.60;;;4.15;;
30948;SDS011;17637;51.984;21.208;2023-02-04T10:24:23;5.50;;;4.30;;
30948;SDS011;17637;51.984;21.208;2023-02-04T10:27:06;8.85;;;5.43;;
30948;SDS011;17637;51.984;21.208;2023-02-04T10:29:40;4.72;;;2.70;;
30948;SDS011;17637;51.984;21.208;2023-02-04T10:32:28;6.22;;;3.70;;
30948;SDS011;17637;51.984;21.208;2023-02-04T10:35:03;3.28;;;2.78;;
30948;SDS011;17637;51.984;21.208;2023-02-04T10:37:35;4.95;;;2.80;;
30948;SDS011;17637;51.984;21.208;2023-02-04T10:40:24;3.38;;;2.50;;
30948;SDS011;17637;51.984;21.208;2023-02-04T10:46:07;4.50;;;3.20;;
30948;SDS011;17637;51.984;21.208;2023-02-04T10:48:40;5.53;;;3.30;;
30948;SDS011;17637;51.984;21.208;2023-02-04T10:51:13;4.35;;;2.80;;
30948;SDS011;17637;51.984;21.208;2023-02-04T10:53:45;23.38;;;12.20;;
30948;SDS011;17637;51.984;21.208;2023-02-04T10:56:36;19.58;;;11.48;;
30948;SDS011;17637;51.984;21.208;2023-02-04T10:59:22;13.57;;;7.72;;
30948;SDS011;17637;51.984;21.208;2023-02-04T11:01:59;8.85;;;5.18;;
30948;SDS011;17637;51.984;21.208;2023-02-04T11:04:33;11.38;;;5.97;;
30948;SDS011;17637;51.984;21.208;2023-02-04T11:07:08;27.33;;;13.27;;
30948;SDS011;17637;51.984;21.208;2023-02-04T11:09:43;10.38;;;4.78;;
30948;SDS011;17637;51.984;21.208;2023-02-04T11:20:54;10.02;;;5.55;;
30948;SDS011;17637;51.984;21.208;2023-02-04T11:23:31;6.97;;;3.95;;
30948;SDS011;17637;51.984;21.208;2023-02-04T11:28:55;4.30;;;3.13;;
30948;SDS011;17637;51.984;21.208;2023-02-04T11:42:20;7.95;;;5.22;;
30948;SDS011;17637;51.984;21.208;2023-02-04T11:47:44;11.85;;;6.55;;
30948;SDS011;17637;51.984;21.208;2023-02-04T11:52:58;10.77;;;6.72;;
30948;SDS011;17637;51.984;21.208;2023-02-04T11:55:34;10.27;;;6.00;;
30948;SDS011;17637;51.984;21.208;2023-02-04T11:58:19;10.27;;;5.95;;
30948;SDS011;17637;51.984;21.208;2023-02-04T12:00:51;15.25;;;8.45;;
30948;SDS011;17637;51.984;21.208;2023-02-04T12:05:57;13.32;;;6.07;;
30948;SDS011;17637;51.984;21.208;2023-02-04T12:08:31;8.20;;;5.13;;
30948;SDS011;17637;51.984;21.208;2023-02-04T12:11:21;11.85;;;7.40;;
30948;SDS011;17637;51.984;21.208;2023-02-04T12:13:58;9.32;;;5.35;;
30948;SDS011;17637;51.984;21.208;2023-02-04T12:16:48;16.52;;;6.32;;
30948;SDS011;17637;51.984;21.208;2023-02-04T12:19:24;20.27;;;8.57;;
30948;SDS011;17637;51.984;21.208;2023-02-04T12:21:57;16.38;;;9.85;;
30948;SDS011;17637;51.984;21.208;2023-02-04T12:24:29;17.42;;;9.18;;
30948;SDS011;17637;51.984;21.208;2023-02-04T12:27:01;8.55;;;5.40;;
30948;SDS011;17637;51.984;21.208;2023-02-04T12:29:33;11.93;;;7.30;;
30948;SDS011;17637;51.984;21.208;2023-02-04T12:32:05;10.02;;;5.90;;
30948;SDS011;17637;51.984;21.208;2023-02-04T12:34:37;35.50;;;17.27;;
30948;SDS011;17637;51.984;21.208;2023-02-04T12:37:09;9.75;;;5.60;;
30948;SDS011;17637;51.984;21.208;2023-02-04T12:39:41;11.00;;;7.65;;
30948;SDS011;17637;51.984;21.208;2023-02-04T12:42:13;12.95;;;10.75;;
30948;SDS011;17637;51.984;21.208;2023-02-04T12:44:45;10.75;;;6.22;;
30948;SDS011;17637;51.984;21.208;2023-02-04T12:47:17;24.38;;;18.48;;
30948;SDS011;17637;51.984;21.208;2023-02-04T12:49:49;11.25;;;6.30;;
30948;SDS011;17637;51.984;21.208;2023-02-04T12:52:21;14.23;;;8.38;;
30948;SDS011;17637;51.984;21.208;2023-02-04T12:54:54;19.77;;;12.38;;
30948;SDS011;17637;51.984;21.208;2023-02-04T12:57:26;13.18;;;6.70;;
30948;SDS011;17637;51.984;21.208;2023-02-04T12:59:58;11.60;;;7.50;;
30948;SDS011;17637;51.984;21.208;2023-02-04T13:02:32;20.35;;;10.38;;
30948;SDS011;17637;51.984;21.208;2023-02-04T13:05:04;9.93;;;5.72;;
30948;SDS011;17637;51.984;21.208;2023-02-04T13:07:37;15.80;;;7.05;;
30948;SDS011;17637;51.984;21.208;2023-02-04T13:10:12;15.90;;;8.68;;
30948;SDS011;17637;51.984;21.208;2023-02-04T13:12:44;7.82;;;4.88;;
30948;SDS011;17637;51.984;21.208;2023-02-04T13:15:16;11.15;;;5.65;;
30948;SDS011;17637;51.984;21.208;2023-02-04T13:17:49;11.57;;;5.55;;
30948;SDS011;17637;51.984;21.208;2023-02-04T13:20:21;10.70;;;5.93;;
30948;SDS011;17637;51.984;21.208;2023-02-04T13:22:53;11.60;;;5.30;;
30948;SDS011;17637;51.984;21.208;2023-02-04T13:25:25;11.57;;;6.38;;
30948;SDS011;17637;51.984;21.208;2023-02-04T13:27:57;10.75;;;6.70;;
30948;SDS011;17637;51.984;21.208;2023-02-04T13:30:29;27.88;;;14.35;;
30948;SDS011;17637;51.984;21.208;2023-02-04T13:33:01;15.70;;;8.95;;
30948;SDS011;17637;51.984;21.208;2023-02-04T13:35:33;12.68;;;6.25;;
30948;SDS011;17637;51.984;21.208;2023-02-04T13:38:06;9.80;;;7.20;;
30948;SDS011;17637;51.984;21.208;2023-02-04T13:40:38;7.93;;;4.90;;
30948;SDS011;17637;51.984;21.208;2023-02-04T13:43:10;16.60;;;9.48;;
30948;SDS011;17637;51.984;21.208;2023-02-04T13:45:42;12.18;;;6.55;;
30948;SDS011;17637;51.984;21.208;2023-02-04T13:48:18;7.50;;;4.95;;
30948;SDS011;17637;51.984;21.208;2023-02-04T13:50:50;8.10;;;5.35;;
30948;SDS011;17637;51.984;21.208;2023-02-04T13:53:22;6.78;;;3.53;;
30948;SDS011;17637;51.984;21.208;2023-02-04T13:55:56;5.97;;;4.07;;
30948;SDS011;17637;51.984;21.208;2023-02-04T13:58:29;5.47;;;4.13;;
30948;SDS011;17637;51.984;21.208;2023-02-04T14:01:01;11.23;;;7.30;;
30948;SDS011;17637;51.984;21.208;2023-02-04T14:03:39;10.10;;;5.97;;
30948;SDS011;17637;51.984;21.208;2023-02-04T14:06:11;8.77;;;5.47;;
30948;SDS011;17637;51.984;21.208;2023-02-04T14:08:43;8.43;;;5.72;;
30948;SDS011;17637;51.984;21.208;2023-02-04T14:11:15;9.48;;;5.88;;
30948;SDS011;17637;51.984;21.208;2023-02-04T14:13:47;12.95;;;6.50;;
30948;SDS011;17637;51.984;21.208;2023-02-04T14:16:19;10.73;;;7.32;;
30948;SDS011;17637;51.984;21.208;2023-02-04T14:18:52;12.82;;;8.65;;
30948;SDS011;17637;51.984;21.208;2023-02-04T14:21:24;8.55;;;6.43;;
30948;SDS011;17637;51.984;21.208;2023-02-04T14:23:56;20.75;;;10.50;;
30948;SDS011;17637;51.984;21.208;2023-02-04T14:26:28;16.67;;;8.32;;
30948;SDS011;17637;51.984;21.208;2023-02-04T14:29:00;18.33;;;9.00;;
30948;SDS011;17637;51.984;21.208;2023-02-04T14:31:32;10.98;;;5.38;;
30948;SDS011;17637;51.984;21.208;2023-02-04T14:34:07;7.20;;;3.92;;
30948;SDS011;17637;51.984;21.208;2023-02-04T14:36:39;6.10;;;3.78;;
30948;SDS011;17637;51.984;21.208;2023-02-04T14:39:11;22.38;;;7.30;;
30948;SDS011;17637;51.984;21.208;2023-02-04T14:41:43;13.55;;;6.18;;
30948;SDS011;17637;51.984;21.208;2023-02-04T14:44:15;45.25;;;16.20;;
30948;SDS011;17637;51.984;21.208;2023-02-04T14:46:51;38.97;;;15.88;;
30948;SDS011;17637;51.984;21.208;2023-02-04T14:49:23;56.40;;;27.30;;
30948;SDS011;17637;51.984;21.208;2023-02-04T14:51:55;21.40;;;10.32;;
30948;SDS011;17637;51.984;21.208;2023-02-04T14:54:27;18.95;;;9.77;;
30948;SDS011;17637;51.984;21.208;2023-02-04T14:56:59;19.85;;;9.05;;
30948;SDS011;17637;51.984;21.208;2023-02-04T14:59:31;23.17;;;11.15;;
30948;SDS011;17637;51.984;21.208;2023-02-04T15:02:03;30.58;;;14.57;;
30948;SDS011;17637;51.984;21.208;2023-02-04T15:04:36;32.88;;;14.82;;
30948;SDS011;17637;51.984;21.208;2023-02-04T15:07:08;28.60;;;10.48;;
30948;SDS011;17637;51.984;21.208;2023-02-04T15:09:41;32.75;;;13.93;;
30948;SDS011;17637;51.984;21.208;2023-02-04T15:12:15;52.17;;;19.15;;
30948;SDS011;17637;51.984;21.208;2023-02-04T15:14:47;22.38;;;9.80;;
30948;SDS011;17637;51.984;21.208;2023-02-04T15:17:19;39.38;;;17.25;;
30948;SDS011;17637;51.984;21.208;2023-02-04T15:19:51;28.08;;;13.60;;
30948;SDS011;17637;51.984;21.208;2023-02-04T15:22:23;122.30;;;46.67;;
30948;SDS011;17637;51.984;21.208;2023-02-04T15:24:55;104.50;;;40.40;;
30948;SDS011;17637;51.984;21.208;2023-02-04T15:27:27;40.65;;;18.15;;